createdAt,value
2019-04-22T00:00:17.946Z,14.40
2019-04-22T00:02:50.346Z,14.50
2019-04-22T00:05:19.228Z,14.40
2019-04-22T00:08:06.783Z,14.40
2019-04-22T00:10:40.720Z,14.30
2019-04-22T00:13:00.091Z,14.40
2019-04-22T00:15:28.071Z,14.30
2019-04-22T00:18:07.736Z,14.40
2019-04-22T00:20:32.113Z,14.30
2019-04-22T00:22:59.765Z,14.30
2019-04-22T00:25:30.691Z,14.20
2019-04-22T00:27:57.534Z,14.20
2019-04-22T00:30:34.116Z,14.20
2019-04-22T00:33:11.221Z,14.10
2019-04-22T00:35:35.539Z,14.10
2019-04-22T00:38:11.147Z,14.10
2019-04-22T00:43:07.047Z,14.10
2019-04-22T00:45:40.064Z,14.10
2019-04-22T00:48:09.094Z,14.00
2019-04-22T00:50:58.362Z,14.00
2019-04-22T00:53:04.391Z,14.00
2019-04-22T00:55:31.430Z,14.00
2019-04-22T00:58:04.671Z,13.90
2019-04-22T01:00:34.149Z,13.90
2019-04-22T01:03:03.109Z,13.80
2019-04-22T01:05:34.417Z,13.80
2019-04-22T01:08:06.828Z,13.80
2019-04-22T01:10:31.742Z,13.80
2019-04-22T01:12:56.984Z,13.80
2019-04-22T01:15:33.928Z,13.70
2019-04-22T01:18:00.201Z,13.70
2019-04-22T01:20:54.587Z,13.60
2019-04-22T01:22:54.633Z,13.70
2019-04-22T01:25:19.078Z,13.70
2019-04-22T01:27:44.616Z,13.70
2019-04-22T01:30:10.965Z,13.60
2019-04-22T01:32:34.006Z,13.60
2019-04-22T01:35:11.217Z,13.50
2019-04-22T01:37:42.629Z,13.60
2019-04-22T01:40:21.132Z,13.50
2019-04-22T01:42:50.341Z,13.50
2019-04-22T01:45:13.813Z,13.50
2019-04-22T01:47:43.806Z,13.40
2019-04-22T01:50:16.440Z,13.40
2019-04-22T01:52:38.002Z,13.40
2019-04-22T01:55:12.360Z,13.30
2019-04-22T01:57:35.042Z,13.30
2019-04-22T01:59:57.608Z,13.30
2019-04-22T02:04:59.941Z,13.30
2019-04-22T02:07:32.344Z,13.30
2019-04-22T02:09:56.113Z,13.30
2019-04-22T02:12:29.848Z,13.20
2019-04-22T02:14:53.921Z,13.20
2019-04-22T02:17:26.924Z,13.20
2019-04-22T02:19:53.172Z,13.10
2019-04-22T02:22:24.823Z,13.10
2019-04-22T02:24:47.083Z,13.10
2019-04-22T02:27:23.555Z,13.10
2019-04-22T02:29:44.437Z,13.10
2019-04-22T02:32:19.401Z,13.10
2019-04-22T02:37:21.033Z,13.00
2019-04-22T02:39:43.117Z,13.10
2019-04-22T02:42:13.124Z,13.00
2019-04-22T02:44:37.704Z,13.00
2019-04-22T02:47:18.243Z,13.00
2019-04-22T02:51:59.696Z,12.90
2019-04-22T02:54:38.417Z,12.90
2019-04-22T02:57:06.240Z,12.90
2019-04-22T03:02:11.900Z,12.90
2019-04-22T03:04:24.702Z,12.90
2019-04-22T03:11:56.682Z,12.80
2019-04-22T03:14:13.401Z,12.80
2019-04-22T03:16:44.604Z,12.80
2019-04-22T03:21:44.140Z,12.80
2019-04-22T03:29:17.956Z,12.60
2019-04-22T03:35:12.241Z,12.60
2019-04-22T03:37:09.501Z,12.60
2019-04-22T03:41:57.256Z,12.50
2019-04-22T03:44:26.656Z,12.50
2019-04-22T03:46:53.423Z,12.50
2019-04-22T03:49:29.009Z,12.50
2019-04-22T03:51:47.965Z,12.50
2019-04-22T03:57:08.035Z,12.40
2019-04-22T03:59:20.037Z,12.40
2019-04-22T04:01:44.223Z,12.40
2019-04-22T04:04:09.698Z,12.40
2019-04-22T04:06:32.769Z,12.40
2019-04-22T04:09:04.219Z,12.40
2019-04-22T04:11:38.249Z,12.30
2019-04-22T04:14:01.009Z,12.30
2019-04-22T04:16:23.178Z,12.30
2019-04-22T04:18:58.315Z,12.30
2019-04-22T04:21:27.323Z,12.30
2019-04-22T04:26:17.416Z,12.20
2019-04-22T04:31:17.416Z,12.20
2019-04-22T04:33:45.273Z,12.20
2019-04-22T04:36:11.566Z,12.20
2019-04-22T04:38:38.932Z,12.20
2019-04-22T04:41:06.933Z,12.20
2019-04-22T04:43:42.005Z,12.10
2019-04-22T04:48:32.691Z,12.10
2019-04-22T04:51:07.750Z,12.10
2019-04-22T04:53:20.282Z,12.10
2019-04-22T04:55:47.144Z,12.10
2019-04-22T04:58:34.451Z,12.10
2019-04-22T05:00:58.165Z,12.10
2019-04-22T05:03:26.964Z,12.10
2019-04-22T05:05:41.566Z,12.20
2019-04-22T05:08:22.253Z,12.20
2019-04-22T05:10:51.695Z,12.20
2019-04-22T05:18:05.814Z,12.20
2019-04-22T05:23:01.233Z,12.30
2019-04-22T05:25:22.203Z,12.30
2019-04-22T05:27:50.993Z,12.30
2019-04-22T05:32:52.238Z,12.30
2019-04-22T05:35:20.751Z,12.30
2019-04-22T05:37:50.316Z,12.30
2019-04-22T05:40:20.222Z,12.40
2019-04-22T05:42:43.916Z,12.40
2019-04-22T05:47:39.182Z,12.50
2019-04-22T05:50:07.834Z,12.50
2019-04-22T05:52:40.559Z,12.50
2019-04-22T05:55:09.696Z,12.50
2019-04-22T05:57:32.801Z,12.60
2019-04-22T06:00:06.315Z,12.70
2019-04-22T06:05:03.771Z,12.80
2019-04-22T06:07:26.420Z,12.80
2019-04-22T06:10:06.680Z,12.90
2019-04-22T06:12:21.865Z,12.90
2019-04-22T06:14:58.708Z,13.10
2019-04-22T06:17:32.186Z,13.20
2019-04-22T06:19:58.239Z,13.30
2019-04-22T06:22:33.802Z,13.40
2019-04-22T06:24:59.295Z,13.50
2019-04-22T06:27:31.014Z,13.50
2019-04-22T06:29:45.799Z,13.60
2019-04-22T06:34:42.050Z,13.80
2019-04-22T06:37:18.687Z,13.90
2019-04-22T06:39:39.629Z,13.90
2019-04-22T06:44:37.019Z,14.10
2019-04-22T06:47:10.449Z,14.00
2019-04-22T06:49:35.497Z,14.20
2019-04-22T06:52:09.204Z,14.20
2019-04-22T06:54:33.012Z,14.30
2019-04-22T06:56:59.607Z,14.30
2019-04-22T07:04:25.590Z,14.60
2019-04-22T07:06:56.548Z,14.80
2019-04-22T07:12:13.851Z,14.90
2019-04-22T07:14:38.440Z,14.90
2019-04-22T07:17:03.661Z,15.10
2019-04-22T07:19:33.733Z,15.00
2019-04-22T07:22:03.344Z,15.10
2019-04-22T07:24:40.636Z,15.20
2019-04-22T07:27:00.493Z,15.30
2019-04-22T07:29:25.965Z,15.30
2019-04-22T07:31:54.699Z,15.30
2019-04-22T07:34:31.440Z,15.30
2019-04-22T07:39:15.607Z,15.50
2019-04-22T07:41:48.869Z,15.50
2019-04-22T07:44:31.840Z,15.60
2019-04-22T07:46:54.699Z,15.80
2019-04-22T07:49:10.871Z,16.00
2019-04-22T07:51:49.612Z,16.00
2019-04-22T07:54:06.180Z,16.20
2019-04-22T07:56:36.703Z,16.30
2019-04-22T07:59:07.589Z,16.30
2019-04-22T08:01:33.263Z,16.20
2019-04-22T08:04:24.300Z,16.20
2019-04-22T08:06:29.579Z,16.30
2019-04-22T08:09:04.690Z,16.40
2019-04-22T08:13:51.243Z,16.70
2019-04-22T08:16:23.641Z,16.70
2019-04-22T08:18:46.022Z,16.70
2019-04-22T08:21:16.765Z,16.70
2019-04-22T08:23:54.114Z,16.70
2019-04-22T08:26:14.768Z,16.90
2019-04-22T08:28:47.854Z,17.00
2019-04-22T08:31:14.889Z,17.10
2019-04-22T08:33:44.015Z,17.20
2019-04-22T08:38:42.035Z,17.20
2019-04-22T08:41:16.380Z,17.20
2019-04-22T08:43:48.294Z,17.30
2019-04-22T08:46:05.434Z,17.30
2019-04-22T08:48:37.085Z,17.50
2019-04-22T08:51:05.445Z,17.40
2019-04-22T08:53:31.818Z,17.50
2019-04-22T08:56:07.711Z,17.50
2019-04-22T08:58:29.353Z,17.50
2019-04-22T09:01:01.083Z,17.60
2019-04-22T09:03:24.340Z,17.70
2019-04-22T09:08:18.679Z,17.60
2019-04-22T09:10:51.226Z,17.80
2019-04-22T09:13:18.581Z,17.90
2019-04-22T09:15:42.220Z,17.90
2019-04-22T09:18:16.167Z,17.90
2019-04-22T09:20:48.938Z,18.00
2019-04-22T09:23:17.715Z,18.10
2019-04-22T09:28:10.449Z,18.20
2019-04-22T09:33:11.204Z,18.30
2019-04-22T09:35:43.667Z,18.30
2019-04-22T09:38:12.543Z,18.30
2019-04-22T09:40:49.999Z,18.40
2019-04-22T09:43:16.984Z,18.40
2019-04-22T09:45:28.934Z,18.40
2019-04-22T09:48:01.948Z,18.60
2019-04-22T09:53:02.451Z,18.70
2019-04-22T09:55:22.756Z,18.80
2019-04-22T09:57:55.773Z,18.80
2019-04-22T10:00:20.935Z,18.80
2019-04-22T10:02:55.441Z,19.00
2019-04-22T10:05:21.167Z,19.10
2019-04-22T10:07:54.506Z,19.10
2019-04-22T10:10:36.595Z,19.20
2019-04-22T10:12:46.798Z,19.10
2019-04-22T10:15:13.745Z,19.20
2019-04-22T10:18:04.615Z,19.30
2019-04-22T10:22:46.126Z,19.40
2019-04-22T10:25:10.459Z,19.60
2019-04-22T10:27:44.726Z,19.50
2019-04-22T10:30:06.094Z,19.50
2019-04-22T10:32:38.082Z,19.60
2019-04-22T10:34:48.620Z,19.60
2019-04-22T10:37:14.648Z,19.70
2019-04-22T10:39:48.112Z,19.70
2019-04-22T10:42:09.493Z,19.80
2019-04-22T10:44:37.196Z,19.70
2019-04-22T10:47:04.255Z,19.90
2019-04-22T10:49:30.650Z,19.80
2019-04-22T10:51:58.381Z,19.90
2019-04-22T10:54:25.366Z,19.80
2019-04-22T10:56:52.798Z,19.80
2019-04-22T10:59:20.487Z,19.90
2019-04-22T11:01:48.608Z,19.90
2019-04-22T11:04:15.343Z,20.00
2019-04-22T11:06:50.671Z,20.00
2019-04-22T11:09:10.604Z,20.10
2019-04-22T11:11:46.602Z,20.00
2019-04-22T11:14:07.464Z,20.10
2019-04-22T11:16:35.126Z,20.20
2019-04-22T11:19:01.738Z,20.10
2019-04-22T11:21:29.506Z,20.20
2019-04-22T11:23:56.544Z,20.30
2019-04-22T11:26:23.870Z,20.20
2019-04-22T11:28:51.670Z,20.30
2019-04-22T11:31:18.681Z,20.30
2019-04-22T11:33:45.184Z,20.30
2019-04-22T11:36:11.562Z,20.30
2019-04-22T11:38:48.617Z,20.30
2019-04-22T11:41:07.241Z,20.40
2019-04-22T11:43:34.440Z,20.40
2019-04-22T11:46:03.259Z,20.50
2019-04-22T11:48:31.062Z,20.50
2019-04-22T11:50:57.857Z,20.50
2019-04-22T11:53:24.838Z,20.60
2019-04-22T11:55:52.975Z,20.60
2019-04-22T11:58:21.061Z,20.60
2019-04-22T12:00:49.485Z,20.60
2019-04-22T12:03:16.863Z,20.60
2019-04-22T12:05:43.980Z,20.60
2019-04-22T12:08:11.304Z,20.70
2019-04-22T12:10:46.862Z,20.80
2019-04-22T12:13:06.255Z,20.70
2019-04-22T12:15:33.035Z,20.80
2019-04-22T12:17:59.402Z,20.90
2019-04-22T12:20:27.456Z,20.80
2019-04-22T12:22:54.148Z,20.80
2019-04-22T12:25:32.312Z,20.90
2019-04-22T12:27:50.819Z,21.00
2019-04-22T12:30:17.764Z,21.00
2019-04-22T12:32:45.390Z,20.90
2019-04-22T12:35:13.687Z,20.90
2019-04-22T12:37:48.098Z,20.90
2019-04-22T12:40:10.765Z,21.00
2019-04-22T12:42:37.631Z,21.10
2019-04-22T12:45:06.557Z,21.20
2019-04-22T12:47:33.718Z,21.20
2019-04-22T12:50:08.882Z,21.20
2019-04-22T12:52:37.369Z,21.30
2019-04-22T12:54:57.349Z,21.30
2019-04-22T12:57:24.903Z,21.30
2019-04-22T12:59:51.476Z,21.40
2019-04-22T13:02:18.800Z,21.30
2019-04-22T13:04:45.989Z,21.30
2019-04-22T13:07:13.547Z,21.40
2019-04-22T13:09:41.112Z,21.50
2019-04-22T13:12:08.954Z,21.40
2019-04-22T13:14:36.935Z,21.50
2019-04-22T13:17:04.027Z,21.50
2019-04-22T13:19:31.860Z,21.50
2019-04-22T13:21:58.678Z,21.60
2019-04-22T13:24:25.962Z,21.80
2019-04-22T13:26:55.038Z,21.90
2019-04-22T13:29:21.392Z,21.90
2019-04-22T13:31:48.842Z,21.90
2019-04-22T13:34:21.404Z,21.90
2019-04-22T13:36:46.407Z,22.00
2019-04-22T13:39:13.161Z,21.90
2019-04-22T13:41:48.790Z,22.00
2019-04-22T13:44:09.401Z,22.00
2019-04-22T13:46:35.951Z,22.10
2019-04-22T13:49:34.077Z,22.10
2019-04-22T13:52:02.407Z,22.10
2019-04-22T13:56:50.556Z,22.20
2019-04-22T13:59:07.232Z,22.00
2019-04-22T14:01:28.643Z,22.10
2019-04-22T14:04:14.382Z,22.10
2019-04-22T14:06:43.112Z,22.20
2019-04-22T14:09:09.655Z,22.20
2019-04-22T14:11:48.780Z,22.30
2019-04-22T14:14:05.104Z,22.10
2019-04-22T14:16:33.124Z,22.20
2019-04-22T14:19:00.201Z,22.30
2019-04-22T14:21:27.067Z,22.30
2019-04-22T14:23:53.560Z,22.20
2019-04-22T14:26:20.010Z,22.10
2019-04-22T14:28:46.233Z,22.10
2019-04-22T14:31:12.786Z,22.20
2019-04-22T14:33:42.934Z,22.20
2019-04-22T14:36:07.621Z,22.30
2019-04-22T14:38:34.719Z,22.30
2019-04-22T14:41:02.520Z,22.30
2019-04-22T14:43:57.031Z,22.40
2019-04-22T14:46:22.099Z,22.50
2019-04-22T14:48:49.758Z,22.60
2019-04-22T14:51:11.185Z,22.50
2019-04-22T14:53:41.439Z,22.50
2019-04-22T14:55:52.736Z,22.50
2019-04-22T14:58:19.283Z,22.40
2019-04-22T15:00:45.970Z,22.30
2019-04-22T15:03:13.517Z,22.30
2019-04-22T15:05:40.154Z,22.30
2019-04-22T15:08:07.162Z,22.40
2019-04-22T15:10:33.994Z,22.40
2019-04-22T15:13:00.810Z,22.40
2019-04-22T15:15:32.059Z,22.30
2019-04-22T15:18:00.975Z,22.30
2019-04-22T15:20:39.556Z,22.30
2019-04-22T15:23:06.688Z,22.30
2019-04-22T15:25:34.849Z,22.30
2019-04-22T15:28:01.594Z,22.10
2019-04-22T15:30:28.115Z,22.00
2019-04-22T15:32:57.102Z,22.00
2019-04-22T15:35:25.149Z,22.00
2019-04-22T15:37:52.980Z,22.00
2019-04-22T15:40:20.649Z,21.70
2019-04-22T15:42:48.828Z,21.70
2019-04-22T15:45:16.923Z,21.70
2019-04-22T15:47:44.027Z,21.60
2019-04-22T15:50:12.223Z,21.60
2019-04-22T15:52:46.283Z,21.60
2019-04-22T15:55:07.206Z,21.60
2019-04-22T15:57:36.453Z,21.60
2019-04-22T16:00:18.287Z,21.50
2019-04-22T16:02:34.609Z,21.50
2019-04-22T16:05:02.717Z,21.50
2019-04-22T16:07:29.779Z,21.30
2019-04-22T16:09:57.555Z,21.30
2019-04-22T16:12:31.870Z,21.30
2019-04-22T16:14:54.945Z,21.30
2019-04-22T16:17:20.327Z,21.20
2019-04-22T16:19:46.771Z,21.10
2019-04-22T16:22:18.330Z,21.10
2019-04-22T16:24:46.008Z,21.10
2019-04-22T16:27:14.276Z,20.90
2019-04-22T16:29:41.197Z,20.90
2019-04-22T16:32:09.619Z,21.00
2019-04-22T16:34:36.207Z,21.00
2019-04-22T16:37:02.948Z,21.00
2019-04-22T16:39:30.931Z,20.90
2019-04-22T16:41:57.537Z,20.90
2019-04-22T16:44:24.918Z,20.90
2019-04-22T16:46:51.895Z,21.00
2019-04-22T16:49:19.430Z,20.80
2019-04-22T16:51:46.003Z,20.80
2019-04-22T16:54:13.752Z,20.80
2019-04-22T16:56:41.772Z,20.80
2019-04-22T16:59:08.819Z,20.70
2019-04-22T17:01:43.341Z,20.80
2019-04-22T17:04:22.791Z,20.80
2019-04-22T17:06:50.704Z,20.70
2019-04-22T17:09:17.809Z,20.60
2019-04-22T17:11:45.612Z,20.60
2019-04-22T17:14:13.368Z,20.60
2019-04-22T17:16:40.304Z,20.60
2019-04-22T17:19:07.272Z,20.60
2019-04-22T17:21:35.243Z,20.60
2019-04-22T17:24:03.478Z,20.60
2019-04-22T17:26:30.488Z,20.50
2019-04-22T17:28:58.047Z,20.50
2019-04-22T17:31:25.205Z,20.50
2019-04-22T17:33:52.878Z,20.40
2019-04-22T17:36:20.281Z,20.40
2019-04-22T17:38:56.451Z,20.40
2019-04-22T17:41:33.930Z,20.30
2019-04-22T17:44:15.309Z,20.20
2019-04-22T17:46:33.648Z,20.10
2019-04-22T17:49:16.710Z,20.10
2019-04-22T17:51:47.294Z,20.10
2019-04-22T17:54:07.302Z,20.10
2019-04-22T17:56:41.927Z,20.00
2019-04-22T17:59:08.257Z,19.90
2019-04-22T18:01:35.610Z,19.90
2019-04-22T18:03:49.803Z,19.90
2019-04-22T18:06:39.180Z,19.90
2019-04-22T18:08:56.443Z,19.80
2019-04-22T18:11:33.394Z,19.80
2019-04-22T18:14:00.412Z,19.80
2019-04-22T18:16:26.167Z,19.80
2019-04-22T18:18:55.798Z,19.70
2019-04-22T18:21:17.326Z,19.70
2019-04-22T18:23:39.983Z,19.60
2019-04-22T18:26:17.001Z,19.60
2019-04-22T18:28:52.676Z,19.60
2019-04-22T18:31:11.991Z,19.50
2019-04-22T18:33:37.092Z,19.50
2019-04-22T18:36:12.613Z,19.50
2019-04-22T18:38:49.150Z,19.40
2019-04-22T18:41:08.078Z,19.40
2019-04-22T18:43:42.437Z,19.30
2019-04-22T18:48:31.963Z,19.20
2019-04-22T18:51:13.359Z,19.20
2019-04-22T18:53:42.297Z,19.10
2019-04-22T18:56:11.633Z,19.10
2019-04-22T18:58:27.369Z,19.00
2019-04-22T19:00:54.908Z,19.10
2019-04-22T19:03:26.341Z,19.00
2019-04-22T19:06:24.351Z,18.90
2019-04-22T19:08:36.832Z,18.90
2019-04-22T19:11:22.344Z,18.90
2019-04-22T19:14:00.706Z,18.80
2019-04-22T19:16:24.396Z,18.80
2019-04-22T19:21:07.917Z,18.70
2019-04-22T19:23:45.091Z,18.60
2019-04-22T19:26:02.238Z,18.60
2019-04-22T19:31:05.527Z,18.50
2019-04-22T19:33:28.665Z,18.50
2019-04-22T19:35:58.310Z,18.40
2019-04-22T19:38:14.097Z,18.40
2019-04-22T19:41:00.641Z,18.30
2019-04-22T19:43:22.949Z,18.30
2019-04-22T19:45:50.614Z,18.30
2019-04-22T19:48:28.312Z,18.20
2019-04-22T19:50:54.462Z,18.20
2019-04-22T19:53:19.578Z,18.10
2019-04-22T19:55:45.058Z,18.00
2019-04-22T19:58:07.172Z,17.90
2019-04-22T20:00:45.952Z,17.90
2019-04-22T20:03:29.677Z,17.80
2019-04-22T20:05:59.467Z,17.70
2019-04-22T20:08:26.402Z,17.60
2019-04-22T20:10:56.012Z,17.50
2019-04-22T20:13:24.428Z,17.50
2019-04-22T20:15:43.788Z,17.40
2019-04-22T20:18:29.754Z,17.50
2019-04-22T20:20:46.541Z,17.30
2019-04-22T20:23:10.187Z,17.30
2019-04-22T20:25:41.062Z,17.20
2019-04-22T20:28:12.775Z,17.20
2019-04-22T20:30:39.876Z,17.10
2019-04-22T20:33:05.322Z,17.10
2019-04-22T20:35:39.101Z,17.00
2019-04-22T20:38:02.865Z,17.00
2019-04-22T20:40:34.757Z,17.00
2019-04-22T20:43:10.351Z,16.90
2019-04-22T20:45:38.091Z,16.90
2019-04-22T20:47:50.971Z,16.90
2019-04-22T20:50:29.735Z,16.90
2019-04-22T20:52:59.148Z,16.80
2019-04-22T20:55:23.926Z,16.70
2019-04-22T20:57:53.486Z,16.70
2019-04-22T21:00:18.887Z,16.60
2019-04-22T21:02:39.865Z,16.50
2019-04-22T21:05:13.470Z,16.50
2019-04-22T21:07:40.822Z,16.40
2019-04-22T21:10:11.438Z,16.40
2019-04-22T21:12:36.237Z,16.40
2019-04-22T21:15:15.907Z,16.40
2019-04-22T21:17:39.053Z,16.30
2019-04-22T21:20:13.606Z,16.30
2019-04-22T21:22:38.461Z,16.30
2019-04-22T21:25:07.533Z,16.40
2019-04-22T21:27:42.486Z,16.30
2019-04-22T21:30:00.067Z,16.30
2019-04-22T21:32:34.284Z,16.20
2019-04-22T21:35:05.783Z,16.20
2019-04-22T21:37:37.774Z,16.20
2019-04-22T21:39:56.808Z,16.10
2019-04-22T21:42:30.678Z,16.10
2019-04-22T21:44:51.138Z,16.00
2019-04-22T21:47:30.172Z,16.00
2019-04-22T21:50:04.460Z,16.00
2019-04-22T21:52:24.381Z,15.90
2019-04-22T21:54:51.874Z,15.90
2019-04-22T21:57:24.166Z,15.90
2019-04-22T21:59:51.098Z,15.90
2019-04-22T22:02:28.404Z,15.90
2019-04-22T22:04:49.067Z,15.90
2019-04-22T22:07:07.481Z,15.80
2019-04-22T22:09:47.151Z,15.80
2019-04-22T22:12:11.661Z,15.70
2019-04-22T22:14:47.799Z,15.60
2019-04-22T22:17:07.334Z,15.70
2019-04-22T22:19:38.012Z,15.70
2019-04-22T22:22:15.283Z,15.60
2019-04-22T22:24:41.714Z,15.60
2019-04-22T22:27:01.473Z,15.60
2019-04-22T22:29:43.638Z,15.60
2019-04-22T22:32:04.789Z,15.60
2019-04-22T22:34:26.642Z,15.60
2019-04-22T22:36:52.972Z,15.50
2019-04-22T22:39:24.888Z,15.40
2019-04-22T22:41:36.914Z,15.40
2019-04-22T22:44:14.058Z,15.50
2019-04-22T22:46:45.666Z,15.50
2019-04-22T22:49:23.708Z,15.40
2019-04-22T22:52:00.090Z,15.40
2019-04-22T22:54:21.563Z,15.40
2019-04-22T22:56:57.246Z,15.40
2019-04-22T22:59:16.196Z,15.30
2019-04-22T23:01:45.384Z,15.30
2019-04-22T23:04:18.038Z,15.30
2019-04-22T23:06:44.328Z,15.20
2019-04-22T23:09:10.154Z,15.10
2019-04-22T23:11:52.040Z,15.10
2019-04-22T23:14:02.417Z,15.20
2019-04-22T23:16:22.022Z,15.20
2019-04-22T23:18:57.763Z,15.10
2019-04-22T23:21:31.289Z,15.10
2019-04-22T23:24:12.409Z,15.10
2019-04-22T23:26:41.947Z,15.00
2019-04-22T23:29:10.447Z,15.00
2019-04-22T23:31:41.894Z,15.00
2019-04-22T23:34:14.651Z,15.00
2019-04-22T23:36:47.559Z,14.90
2019-04-22T23:39:15.781Z,14.90
2019-04-22T23:44:20.166Z,14.90
2019-04-22T23:46:41.512Z,14.90
2019-04-22T23:49:10.155Z,14.80
2019-04-22T23:51:39.287Z,14.90
2019-04-22T23:54:13.301Z,14.80
2019-04-22T23:56:33.556Z,14.70
2019-04-22T23:59:09.776Z,14.80
